Time;durP1;ratioP1;P1;durP2;ratioP2;P2;SDS_P1;SDS_P2;PMS_P1;PMS_P2;Temp;Humidity;BMP_temperature;BMP_pressure;BME280_temperature;BME280_humidity;BME280_pressure;Samples;Min_cycle;Max_cycle;Signal;HPM_P1;HPM_P2
2022/07/16 00:02:46;;;;;;;11.32;5.97;;;23.50;98.70;;;;;;4830295;29;20520;-79
2022/07/16 00:05:13;;;;;;;11.52;6.68;;;23.50;99.20;;;;;;4829210;29;20125;-78
2022/07/16 00:07:41;;;;;;;9.23;5.72;;;23.40;99.90;;;;;;4821551;29;20064;-78
2022/07/16 00:10:09;;;;;;;12.55;5.75;;;23.20;99.90;;;;;;4821440;29;20054;-80
2022/07/16 00:12:36;;;;;;;11.60;6.00;;;23.10;99.90;;;;;;4822158;29;20599;-80
2022/07/16 00:15:04;;;;;;;11.30;6.07;;;23.10;99.90;;;;;;4820820;29;20054;-78
2022/07/16 00:17:34;;;;;;;12.18;6.25;;;23.20;99.90;;;;;;4822086;29;20039;-79
2022/07/16 00:20:11;;;;;;;9.05;5.93;;;23.20;99.90;;;;;;4831422;29;20065;-78
2022/07/16 00:22:41;;;;;;;9.27;5.75;;;23.20;99.90;;;;;;4822806;29;20058;-76
2022/07/16 00:25:09;;;;;;;9.15;5.50;;;23.20;99.90;;;;;;4830508;29;20520;-78
2022/07/16 00:27:37;;;;;;;7.43;4.65;;;23.00;99.90;;;;;;4829523;29;20059;-74
2022/07/16 00:30:08;;;;;;;8.50;4.60;;;22.90;99.90;;;;;;4831095;29;20042;-78
2022/07/16 00:32:38;;;;;;;8.82;4.60;;;22.90;99.90;;;;;;4830843;29;20046;-77
2022/07/16 00:35:06;;;;;;;7.68;5.00;;;23.00;99.90;;;;;;4831140;29;20070;-78
2022/07/16 00:37:34;;;;;;;12.57;5.10;;;23.20;99.90;;;;;;4829018;29;20034;-75
2022/07/16 00:40:01;;;;;;;9.73;4.40;;;23.00;99.90;;;;;;4824833;29;20054;-75
2022/07/16 00:42:29;;;;;;;9.70;4.38;;;23.00;99.90;;;;;;4833332;29;20057;-78
2022/07/16 00:45:00;;;;;;;10.77;4.60;;;22.90;99.90;;;;;;4834678;29;20061;-79
2022/07/16 00:47:27;;;;;;;;;;;22.80;99.90;;;;;;4818519;29;20141;-77
2022/07/16 00:49:55;;;;;;;8.43;4.68;;;23.00;99.90;;;;;;4832071;29;19931;-78
2022/07/16 00:52:23;;;;;;;12.10;4.50;;;22.90;99.90;;;;;;4816427;29;20114;-77
2022/07/16 00:54:50;;;;;;;7.00;4.40;;;23.00;99.90;;;;;;4828099;29;20054;-80
2022/07/16 00:57:18;;;;;;;7.82;3.72;;;22.90;99.90;;;;;;4833563;29;20499;-75
2022/07/16 00:59:46;;;;;;;7.00;3.92;;;22.70;99.90;;;;;;4832892;29;20117;-81
2022/07/16 01:02:14;;;;;;;10.45;4.90;;;22.50;99.90;;;;;;4831903;29;20046;-78
2022/07/16 01:04:45;;;;;;;9.00;5.00;;;22.70;99.90;;;;;;4833723;29;20041;-81
2022/07/16 01:07:17;;;;;;;7.97;4.35;;;22.60;99.90;;;;;;4817751;29;20065;-75
2022/07/16 01:09:47;;;;;;;9.63;4.63;;;22.70;99.90;;;;;;4832444;29;20137;-79
2022/07/16 01:12:18;;;;;;;7.45;4.18;;;22.70;99.90;;;;;;4831968;29;20117;-80
2022/07/16 01:14:48;;;;;;;9.23;4.47;;;22.50;99.90;;;;;;4840026;29;20050;-80
2022/07/16 01:17:15;;;;;;;9.85;4.57;;;22.60;99.90;;;;;;4841901;29;20091;-82
2022/07/16 01:19:42;;;;;;;11.65;4.25;;;22.50;99.90;;;;;;4842485;29;20058;-79
2022/07/16 01:22:24;;;;;;;11.23;4.40;;;22.50;99.90;;;;;;4843118;29;20048;-79
2022/07/16 01:24:53;;;;;;;11.13;4.88;;;22.60;99.90;;;;;;4842534;29;20064;-77
2022/07/16 01:27:21;;;;;;;8.90;4.65;;;22.60;99.90;;;;;;4842430;29;20397;-80
2022/07/16 01:29:49;;;;;;;9.93;4.82;;;22.50;99.90;;;;;;4843238;29;20395;-79
2022/07/16 01:32:16;;;;;;;7.85;4.30;;;22.50;99.90;;;;;;4843479;29;20069;-80
2022/07/16 01:34:44;;;;;;;12.27;5.18;;;22.70;99.90;;;;;;4843609;29;20419;-81
2022/07/16 01:37:15;;;;;;;10.55;4.70;;;22.70;99.90;;;;;;4843062;29;20042;-78
2022/07/16 01:39:43;;;;;;;9.80;4.95;;;22.50;99.90;;;;;;4842864;29;20062;-79
2022/07/16 01:42:10;;;;;;;9.65;4.70;;;22.60;99.90;;;;;;4841657;29;20068;-79
2022/07/16 01:44:43;;;;;;;7.93;4.45;;;22.60;99.90;;;;;;4826586;29;20477;-78
2022/07/16 01:47:13;;;;;;;9.82;4.30;;;22.60;99.90;;;;;;4824098;29;20050;-80
2022/07/16 01:49:41;;;;;;;12.75;5.18;;;22.30;99.90;;;;;;4824708;29;20456;-80
2022/07/16 01:52:13;;;;;;;10.10;4.50;;;22.20;99.90;;;;;;4808422;29;20039;-79
2022/07/16 01:54:43;;;;;;;24.23;18.13;;;22.20;99.90;;;;;;4807461;29;20046;-80
2022/07/16 01:57:11;;;;;;;8.05;5.28;;;22.30;99.90;;;;;;4807705;29;20043;-81
2022/07/16 01:59:40;;;;;;;12.25;5.20;;;22.40;99.90;;;;;;4793465;29;20058;-80
2022/07/16 02:02:08;;;;;;;13.60;5.03;;;22.40;99.90;;;;;;4807858;29;20074;-80
2022/07/16 02:04:36;;;;;;;12.55;5.25;;;22.40;99.90;;;;;;4824114;29;20054;-81
2022/07/16 02:07:04;;;;;;;10.52;5.55;;;22.40;99.90;;;;;;4824136;29;20046;-81
2022/07/16 02:09:32;;;;;;;10.95;4.95;;;22.50;99.90;;;;;;4822681;29;20042;-78
2022/07/16 02:11:59;;;;;;;10.77;4.95;;;22.30;99.90;;;;;;4823531;29;20061;-80
2022/07/16 02:14:27;;;;;;;11.07;5.03;;;22.20;99.90;;;;;;4824004;29;20050;-79
2022/07/16 02:16:54;;;;;;;9.05;4.53;;;22.10;99.90;;;;;;4823979;29;20057;-80
2022/07/16 02:19:22;;;;;;;11.18;4.93;;;22.30;99.90;;;;;;4823791;29;20491;-81
2022/07/16 02:21:49;;;;;;;7.93;4.68;;;22.40;99.90;;;;;;4823944;29;20050;-80
2022/07/16 02:24:17;;;;;;;7.72;4.75;;;22.10;99.90;;;;;;4807645;29;20110;-79
2022/07/16 02:26:44;;;;;;;9.77;5.18;;;21.80;99.90;;;;;;4822764;29;20384;-79
2022/07/16 02:29:12;;;;;;;8.90;5.22;;;21.90;99.90;;;;;;4807395;29;20062;-77
2022/07/16 02:31:40;;;;;;;9.73;5.25;;;22.00;99.90;;;;;;4807723;29;20416;-77
2022/07/16 02:34:07;;;;;;;9.85;5.05;;;22.20;99.90;;;;;;4792931;29;20050;-77
2022/07/16 02:36:35;;;;;;;9.07;4.60;;;22.00;99.90;;;;;;4824304;29;20039;-78
2022/07/16 02:39:03;;;;;;;7.30;4.40;;;21.80;99.90;;;;;;4806979;29;20050;-78
2022/07/16 02:41:30;;;;;;;10.82;4.72;;;21.70;99.90;;;;;;4823894;29;20445;-79
2022/07/16 02:43:57;;;;;;;8.45;5.30;;;21.80;99.90;;;;;;4812271;29;20426;-77
2022/07/16 02:46:25;;;;;;;8.75;5.13;;;21.80;99.90;;;;;;4822607;29;20073;-78
2022/07/16 02:48:52;;;;;;;12.02;5.35;;;21.70;99.90;;;;;;4822056;29;20066;-79
2022/07/16 02:51:22;;;;;;;10.95;4.60;;;21.60;99.90;;;;;;4823714;29;20038;-76
2022/07/16 02:53:50;;;;;;;8.60;5.10;;;21.70;99.90;;;;;;4823212;29;20054;-79
2022/07/16 02:56:17;;;;;;;6.75;4.25;;;21.60;99.90;;;;;;4807389;29;20047;-79
2022/07/16 02:58:45;;;;;;;8.73;4.57;;;21.80;99.90;;;;;;4823358;29;20038;-79
2022/07/16 03:01:12;;;;;;;8.20;4.75;;;21.60;99.90;;;;;;4823869;29;20046;-79
2022/07/16 03:03:41;;;;;;;10.02;4.57;;;21.40;99.90;;;;;;4807224;29;20054;-80
2022/07/16 03:06:13;;;;;;;9.57;4.50;;;21.40;99.90;;;;;;4823682;29;20047;-80
2022/07/16 03:08:40;;;;;;;8.45;5.00;;;21.50;99.90;;;;;;4823321;29;20054;-79
2022/07/16 03:11:10;;;;;;;7.47;4.53;;;21.20;99.90;;;;;;4806957;29;20054;-79
2022/07/16 03:13:38;;;;;;;18.52;6.65;;;21.30;99.90;;;;;;4823318;29;20075;-79
2022/07/16 03:16:05;;;;;;;7.53;4.70;;;21.50;99.90;;;;;;4824001;29;20034;-79
2022/07/16 03:18:33;;;;;;;8.40;4.03;;;21.50;99.90;;;;;;4823216;29;20050;-79
2022/07/16 03:21:04;;;;;;;7.22;4.05;;;21.60;99.90;;;;;;4823352;29;20138;-78
2022/07/16 03:23:31;;;;;;;8.38;3.92;;;21.60;99.90;;;;;;4822801;29;20062;-78
2022/07/16 03:26:08;;;;;;;7.03;4.47;;;21.50;99.90;;;;;;4823475;29;20051;-78
2022/07/16 03:28:36;;;;;;;13.32;4.95;;;21.50;99.90;;;;;;4821482;29;20047;-78
2022/07/16 03:31:06;;;;;;;8.32;4.60;;;21.30;99.90;;;;;;4823680;29;20379;-78
2022/07/16 03:33:33;;;;;;;8.13;4.87;;;21.30;99.90;;;;;;4822061;29;20054;-77
2022/07/16 03:36:03;;;;;;;7.13;4.32;;;21.20;99.90;;;;;;4822406;29;20707;-78
2022/07/16 03:41:16;;;;;;;7.78;4.30;;;21.20;99.90;;;;;;4822235;29;20317;-78
2022/07/16 03:43:43;;;;;;;7.15;4.53;;;21.40;99.90;;;;;;4822803;29;20043;-78
2022/07/16 03:46:13;;;;;;;8.90;4.65;;;21.30;99.90;;;;;;4806940;29;20065;-80
2022/07/16 03:48:41;;;;;;;10.98;4.93;;;21.30;99.90;;;;;;4821737;29;20050;-77
2022/07/16 03:51:10;;;;;;;7.90;4.60;;;21.50;99.90;;;;;;4822657;29;20054;-78
2022/07/16 03:53:40;;;;;;;9.65;4.50;;;21.50;99.90;;;;;;4822565;29;20056;-79
2022/07/16 03:56:10;;;;;;;9.18;4.32;;;21.50;99.90;;;;;;4806996;29;20128;-78
2022/07/16 03:58:40;;;;;;;8.93;4.70;;;21.50;99.90;;;;;;4822685;29;20053;-78
2022/07/16 04:01:08;;;;;;;11.65;4.80;;;21.60;99.90;;;;;;4822913;29;20061;-80
2022/07/16 04:03:39;;;;;;;9.18;4.75;;;21.70;99.90;;;;;;4821768;29;20049;-80
2022/07/16 04:06:08;;;;;;;7.00;4.47;;;21.70;99.90;;;;;;4823326;29;20046;-78
2022/07/16 04:08:37;;;;;;;10.73;5.47;;;21.70;99.90;;;;;;4806546;29;20484;-77
2022/07/16 04:11:05;;;;;;;13.38;5.00;;;21.80;99.90;;;;;;4806759;29;20058;-79
2022/07/16 04:13:39;;;;;;;6.88;4.55;;;21.60;99.90;;;;;;4806665;29;20452;-80
2022/07/16 04:16:08;;;;;;;8.32;5.10;;;21.60;99.90;;;;;;4823239;29;20134;-79
2022/07/16 04:18:36;;;;;;;9.93;5.53;;;21.60;99.90;;;;;;4825411;29;20499;-79
2022/07/16 04:21:07;;;;;;;11.60;5.53;;;21.80;99.90;;;;;;4824950;29;20066;-79
2022/07/16 04:23:34;;;;;;;;;;;21.80;99.90;;;;;;4825947;29;20065;-80
2022/07/16 04:26:02;;;;;;;8.35;4.97;;;21.80;99.90;;;;;;4809675;29;19956;-77
2022/07/16 04:28:30;;;;;;;10.90;5.35;;;21.90;99.90;;;;;;4825534;29;20542;-79
2022/07/16 04:30:58;;;;;;;9.18;5.28;;;21.80;99.90;;;;;;4826235;29;20411;-74
2022/07/16 04:33:27;;;;;;;10.68;5.15;;;22.00;99.90;;;;;;4825939;29;20046;-80
2022/07/16 04:35:56;;;;;;;10.63;4.72;;;22.00;99.90;;;;;;4826191;29;20420;-75
2022/07/16 04:38:24;;;;;;;9.15;4.60;;;22.00;99.90;;;;;;4825341;29;20046;-80
2022/07/16 04:40:54;;;;;;;22.15;4.90;;;21.90;99.90;;;;;;4825680;29;20463;-80
2022/07/16 04:43:26;;;;;;;8.73;4.60;;;21.80;99.90;;;;;;4824986;29;20046;-77
2022/07/16 04:45:53;;;;;;;8.88;4.93;;;21.90;99.90;;;;;;4807663;29;20413;-80
2022/07/16 04:48:23;;;;;;;7.57;5.03;;;22.00;99.90;;;;;;4806977;29;20410;-76
2022/07/16 04:50:52;;;;;;;7.90;4.70;;;22.00;99.90;;;;;;4808202;29;20057;-79
2022/07/16 04:53:22;;;;;;;;;;;22.00;99.90;;;;;;4807810;29;20440;-81
2022/07/16 04:55:50;;;;;;;13.15;4.90;;;22.00;99.90;;;;;;4807890;29;19925;-79
2022/07/16 04:58:17;;;;;;;10.23;4.75;;;22.20;99.90;;;;;;4807363;29;20107;-78
2022/07/16 05:00:47;;;;;;;9.27;4.70;;;22.30;99.90;;;;;;4807594;29;20444;-80
2022/07/16 05:03:14;;;;;;;15.70;5.20;;;22.40;99.90;;;;;;4807370;29;20058;-80
2022/07/16 05:05:46;;;;;;;8.02;5.32;;;22.40;99.90;;;;;;4790863;29;20529;-77
2022/07/16 05:08:14;;;;;;;7.68;5.10;;;22.10;99.90;;;;;;4807047;29;20067;-78
2022/07/16 05:10:45;;;;;;;7.90;4.90;;;22.20;99.90;;;;;;4807433;29;20392;-79
2022/07/16 05:13:13;;;;;;;8.65;4.80;;;22.40;99.90;;;;;;4807153;29;20050;-77
2022/07/16 05:15:43;;;;;;;10.27;5.07;;;22.60;99.90;;;;;;4791083;29;20096;-78
2022/07/16 05:18:11;;;;;;;10.73;5.28;;;22.60;99.90;;;;;;4806693;29;20050;-78
2022/07/16 05:20:38;;;;;;;7.78;4.68;;;22.40;99.90;;;;;;4775625;29;20403;-79
2022/07/16 05:23:09;;;;;;;8.38;4.90;;;22.40;99.90;;;;;;4806693;29;20458;-79
2022/07/16 05:25:36;;;;;;;8.50;4.88;;;22.50;99.90;;;;;;4790755;29;20051;-79
2022/07/16 05:28:04;;;;;;;8.88;5.05;;;22.60;99.90;;;;;;4774510;29;20170;-77
2022/07/16 05:30:31;;;;;;;8.95;4.70;;;22.60;99.90;;;;;;4789882;29;20058;-78
2022/07/16 05:32:58;;;;;;;6.57;4.10;;;22.70;99.90;;;;;;4806237;29;20050;-79
2022/07/16 05:35:27;;;;;;;10.52;4.55;;;22.80;99.90;;;;;;4806248;29;20039;-77
2022/07/16 05:37:54;;;;;;;5.97;3.88;;;22.90;99.90;;;;;;4805988;29;20039;-80
2022/07/16 05:40:24;;;;;;;6.70;4.40;;;23.10;99.90;;;;;;4813753;29;20059;-79
2022/07/16 05:42:52;;;;;;;7.03;4.68;;;23.00;99.90;;;;;;4824351;29;20042;-79
2022/07/16 05:45:20;;;;;;;9.27;5.15;;;23.10;99.90;;;;;;4823949;29;20050;-79
2022/07/16 05:47:47;;;;;;;7.32;4.40;;;23.20;99.90;;;;;;4824162;29;20046;-79
2022/07/16 05:50:15;;;;;;;9.65;4.93;;;23.10;99.90;;;;;;4824098;29;20051;-78
2022/07/16 05:52:43;;;;;;;8.30;4.68;;;23.10;99.90;;;;;;4823739;29;20042;-81
2022/07/16 05:55:11;;;;;;;12.57;5.38;;;23.00;99.90;;;;;;4824349;29;20133;-79
2022/07/16 05:57:43;;;;;;;12.18;5.15;;;23.10;99.90;;;;;;4823917;29;20977;-76
2022/07/16 06:00:12;;;;;;;8.85;5.10;;;23.10;99.90;;;;;;4824373;29;20467;-77
2022/07/16 06:02:41;;;;;;;11.18;5.10;;;23.20;99.90;;;;;;4824218;29;20058;-78
2022/07/16 06:05:11;;;;;;;10.50;5.25;;;23.20;99.90;;;;;;4824020;29;20134;-78
2022/07/16 06:07:41;;;;;;;9.88;4.90;;;23.30;99.90;;;;;;4807795;29;20093;-78
2022/07/16 06:10:09;;;;;;;8.88;5.00;;;23.40;99.90;;;;;;4823973;29;20042;-77
2022/07/16 06:12:37;;;;;;;11.73;5.22;;;23.30;99.90;;;;;;4823912;29;20042;-77
2022/07/16 06:15:06;;;;;;;11.20;5.30;;;23.40;99.90;;;;;;4824185;29;20061;-76
2022/07/16 06:17:34;;;;;;;9.98;5.10;;;23.40;99.90;;;;;;4824027;29;20054;-77
2022/07/16 06:20:05;;;;;;;15.38;5.60;;;23.40;99.90;;;;;;4823795;29;20061;-77
2022/07/16 06:22:35;;;;;;;10.93;5.50;;;23.40;99.90;;;;;;4824060;29;20976;-77
2022/07/16 06:25:03;;;;;;;11.77;4.93;;;23.40;99.90;;;;;;4824127;29;20057;-78
2022/07/16 06:27:31;;;;;;;11.85;5.70;;;23.40;99.90;;;;;;4823648;29;20057;-78
2022/07/16 06:30:05;;;;;;;10.45;5.40;;;23.40;99.90;;;;;;4824286;29;20046;-78
2022/07/16 06:32:33;;;;;;;11.00;5.88;;;23.70;99.90;;;;;;4823904;29;20049;-79
2022/07/16 06:35:00;;;;;;;13.10;6.18;;;23.80;99.90;;;;;;4824141;29;20103;-77
2022/07/16 06:37:27;;;;;;;15.88;6.40;;;23.80;99.90;;;;;;4814844;29;20557;-75
2022/07/16 06:39:55;;;;;;;12.48;6.32;;;23.80;99.90;;;;;;4817795;29;20070;-78
2022/07/16 06:42:22;;;;;;;93.68;70.10;;;23.80;99.90;;;;;;4822149;29;20076;-78
2022/07/16 06:44:50;;;;;;;96.20;69.28;;;23.90;99.90;;;;;;4821673;29;20091;-79
2022/07/16 06:47:17;;;;;;;13.45;9.98;;;23.90;99.90;;;;;;4820280;29;20411;-78
2022/07/16 06:49:47;;;;;;;17.55;10.50;;;23.90;99.90;;;;;;4818730;29;20050;-76
2022/07/16 06:52:15;;;;;;;70.28;50.42;;;24.10;99.90;;;;;;4821014;29;20394;-78
2022/07/16 06:54:42;;;;;;;43.17;28.27;;;24.30;99.90;;;;;;4823540;29;20057;-76
2022/07/16 06:57:10;;;;;;;40.83;29.75;;;24.30;99.90;;;;;;4821278;29;20040;-76
2022/07/16 06:59:38;;;;;;;18.90;9.10;;;24.40;99.90;;;;;;4821409;29;20125;-78
2022/07/16 07:02:05;;;;;;;14.80;6.70;;;24.50;99.90;;;;;;4818828;29;20490;-80
2022/07/16 07:04:32;;;;;;;12.93;7.13;;;24.60;99.90;;;;;;4821887;29;20046;-78
2022/07/16 07:07:00;;;;;;;13.48;7.50;;;24.70;99.90;;;;;;4821136;29;20122;-80
2022/07/16 07:09:28;;;;;;;11.05;5.65;;;24.80;99.90;;;;;;4822603;29;20059;-79
2022/07/16 07:11:55;;;;;;;15.55;6.88;;;24.80;99.90;;;;;;4822702;29;20133;-77
2022/07/16 07:14:23;;;;;;;15.50;6.60;;;24.80;99.90;;;;;;4808010;29;20507;-79
2022/07/16 07:16:50;;;;;;;12.85;5.65;;;25.00;99.90;;;;;;4822284;29;20042;-77
2022/07/16 07:19:17;;;;;;;10.23;5.28;;;25.00;99.90;;;;;;4823533;29;20054;-79
2022/07/16 07:21:45;;;;;;;13.65;5.90;;;25.00;99.20;;;;;;4821371;29;20050;-79
2022/07/16 07:24:12;;;;;;;12.30;6.40;;;25.00;99.10;;;;;;4821071;29;20042;-80
2022/07/16 07:26:59;;;;;;;13.77;5.22;;;25.20;99.30;;;;;;4819595;29;20047;-78
2022/07/16 07:29:27;;;;;;;10.00;5.32;;;25.30;98.40;;;;;;4812222;29;20069;-80
2022/07/16 07:31:54;;;;;;;12.52;5.38;;;25.30;98.40;;;;;;4822181;29;20030;-79
2022/07/16 07:34:21;;;;;;;13.80;5.93;;;25.40;97.70;;;;;;4824088;29;20050;-78
2022/07/16 07:36:49;;;;;;;11.10;4.78;;;25.50;97.90;;;;;;4816431;29;20050;-77
2022/07/16 07:39:16;;;;;;;10.93;4.82;;;25.50;97.60;;;;;;4821429;29;20427;-80
2022/07/16 07:41:44;;;;;;;13.88;4.63;;;25.70;97.70;;;;;;4823376;29;20037;-77
2022/07/16 07:44:11;;;;;;;9.75;4.10;;;25.80;97.20;;;;;;4796011;29;20069;-80
2022/07/16 07:46:39;;;;;;;11.20;4.97;;;25.80;96.10;;;;;;4811536;29;20145;-78
2022/07/16 07:49:08;;;;;;;16.50;4.95;;;25.90;96.20;;;;;;4795565;29;20777;-78
2022/07/16 07:51:38;;;;;;;8.75;4.32;;;26.10;96.10;;;;;;4812539;29;20042;-77
2022/07/16 07:54:06;;;;;;;12.30;5.40;;;26.20;96.10;;;;;;4824576;29;20053;-79
2022/07/16 07:56:35;;;;;;;10.63;4.80;;;26.30;95.60;;;;;;4824649;29;20046;-76
2022/07/16 07:59:03;;;;;;;11.50;5.22;;;26.30;95.90;;;;;;4814641;29;20521;-80
2022/07/16 08:01:31;;;;;;;49.22;30.70;;;26.30;95.30;;;;;;4823588;29;20046;-75
2022/07/16 08:04:02;;;;;;;140.13;90.30;;;26.40;95.10;;;;;;4815857;29;20061;-75
2022/07/16 08:06:30;;;;;;;18.35;13.52;;;26.40;94.70;;;;;;4815165;29;20503;-75
2022/07/16 08:08:57;;;;;;;10.18;5.57;;;26.60;93.70;;;;;;4815011;29;20046;-76
2022/07/16 08:11:32;;;;;;;9.98;5.85;;;26.60;93.30;;;;;;4800801;29;20062;-77
2022/07/16 08:14:00;;;;;;;10.50;6.03;;;26.50;94.10;;;;;;4796537;29;20461;-79
2022/07/16 08:16:47;;;;;;;15.27;8.50;;;26.60;94.00;;;;;;4813571;29;20403;-76
2022/07/16 08:19:18;;;;;;;11.88;5.20;;;26.70;93.90;;;;;;4822835;29;20084;-76
2022/07/16 08:21:48;;;;;;;13.82;6.03;;;26.70;94.20;;;;;;4813067;29;20046;-79
2022/07/16 08:27:06;;;;;;;8.70;3.58;;;26.80;92.10;;;;;;4822845;29;20045;-81
2022/07/16 08:29:34;;;;;;;11.98;3.50;;;27.00;91.90;;;;;;4823239;29;20054;-80
2022/07/16 08:32:04;;;;;;;9.43;3.90;;;27.10;92.00;;;;;;4813675;29;20131;-79
2022/07/16 08:34:35;;;;;;;5.93;4.07;;;27.10;90.50;;;;;;4814967;29;20047;-81
2022/07/16 08:37:15;;;;;;;6.00;3.70;;;27.10;89.90;;;;;;4798013;29;20054;-78
2022/07/16 08:39:46;;;;;;;9.75;3.90;;;27.10;90.00;;;;;;4801505;29;20086;-80
2022/07/16 08:42:16;;;;;;;10.15;4.00;;;27.20;86.90;;;;;;4814503;29;20049;-78
2022/07/16 08:44:46;;;;;;;14.25;7.57;;;27.40;87.70;;;;;;4823172;29;20072;-78
2022/07/16 08:47:14;;;;;;;15.90;8.52;;;27.40;88.10;;;;;;4813766;29;20081;-78
2022/07/16 08:49:45;;;;;;;7.75;4.10;;;27.60;87.10;;;;;;4813205;29;20061;-77
2022/07/16 08:52:16;;;;;;;13.50;6.85;;;27.50;84.40;;;;;;4823126;29;20070;-80
2022/07/16 08:54:45;;;;;;;8.88;4.22;;;27.50;84.40;;;;;;4824636;29;20043;-79
2022/07/16 08:57:21;;;;;;;7.78;3.92;;;27.50;82.80;;;;;;4824341;29;20070;-80
2022/07/16 08:59:53;;;;;;;8.55;3.50;;;27.60;83.50;;;;;;4809427;29;20065;-80
2022/07/16 09:02:24;;;;;;;8.65;4.40;;;27.70;84.20;;;;;;4809270;29;20058;-79
2022/07/16 09:04:54;;;;;;;8.60;5.35;;;27.70;83.30;;;;;;4808709;29;20525;-79
2022/07/16 09:07:22;;;;;;;8.13;4.75;;;27.70;84.20;;;;;;4823243;29;20151;-77
2022/07/16 09:09:49;;;;;;;8.60;5.28;;;27.70;85.60;;;;;;4808500;29;20042;-79
2022/07/16 09:12:43;;;;;;;10.27;5.00;;;27.60;85.50;;;;;;4809215;29;20134;-79
2022/07/16 09:15:27;;;;;;;8.68;4.13;;;27.60;85.30;;;;;;4801789;29;20056;-77
2022/07/16 09:18:12;;;;;;;11.82;3.63;;;27.90;83.10;;;;;;4815735;29;20422;-77
2022/07/16 09:20:52;;;;;;;7.93;3.60;;;27.80;83.20;;;;;;4802726;29;20148;-77
2022/07/16 09:23:27;;;;;;;6.40;3.70;;;27.90;83.50;;;;;;4802492;29;20771;-79
2022/07/16 09:26:02;;;;;;;14.85;4.53;;;28.00;83.80;;;;;;4802719;29;20042;-78
2022/07/16 09:28:51;;;;;;;22.38;12.48;;;28.10;84.80;;;;;;4800073;29;20050;-76
2022/07/16 09:31:38;;;;;;;89.30;61.55;;;28.20;84.30;;;;;;4816545;29;20054;-79
2022/07/16 09:34:11;;;;;;;19.88;12.95;;;28.40;86.50;;;;;;4816438;29;20061;-76
2022/07/16 09:37:01;;;;;;;10.30;5.80;;;28.40;85.40;;;;;;4802836;29;20162;-81
2022/07/16 09:39:31;;;;;;;10.40;5.30;;;28.40;83.50;;;;;;4817238;29;20050;-76
2022/07/16 09:42:03;;;;;;;8.75;4.85;;;28.70;85.90;;;;;;4817101;29;20195;-80
2022/07/16 09:44:41;;;;;;;9.75;5.45;;;28.70;82.50;;;;;;4801204;29;20125;-79
2022/07/16 09:47:12;;;;;;;8.25;5.60;;;28.70;82.90;;;;;;4815618;29;20046;-80
2022/07/16 09:50:01;;;;;;;14.05;6.43;;;28.90;84.40;;;;;;4813723;29;20087;-78
2022/07/16 09:52:37;;;;;;;11.55;5.05;;;29.10;83.70;;;;;;4810220;29;20145;-76
2022/07/16 09:55:05;;;;;;;9.52;5.18;;;29.30;82.20;;;;;;4809900;29;20057;-81
2022/07/16 09:57:34;;;;;;;10.85;5.82;;;29.00;81.40;;;;;;4807944;29;20058;-79
2022/07/16 10:00:08;;;;;;;10.83;4.33;;;29.10;82.60;;;;;;4808322;29;20122;-74
2022/07/16 10:02:39;;;;;;;10.02;5.22;;;29.30;82.80;;;;;;4792870;29;20056;-82
2022/07/16 10:05:07;;;;;;;12.07;6.30;;;29.50;79.90;;;;;;4807931;29;20058;-79
2022/07/16 10:07:36;;;;;;;11.85;5.32;;;29.50;80.00;;;;;;4806772;29;20050;-79
2022/07/16 10:10:04;;;;;;;13.40;4.93;;;29.60;80.20;;;;;;4822512;29;20122;-78
2022/07/16 10:12:33;;;;;;;12.32;6.13;;;29.70;79.90;;;;;;4822055;29;20054;-79
2022/07/16 10:15:13;;;;;;;14.30;5.72;;;29.90;80.60;;;;;;4805635;29;20387;-80
2022/07/16 10:17:41;;;;;;;11.77;7.05;;;29.80;80.30;;;;;;4806211;29;20141;-75
2022/07/16 10:20:14;;;;;;;11.43;5.25;;;29.60;78.80;;;;;;4806185;29;20057;-74
2022/07/16 10:22:50;;;;;;;12.30;5.47;;;29.60;77.60;;;;;;4821710;29;20093;-77
2022/07/16 10:25:35;;;;;;;23.15;16.88;;;29.70;78.60;;;;;;4805494;29;20046;-76
2022/07/16 10:28:03;;;;;;;101.53;72.18;;;29.90;79.30;;;;;;4791101;29;20050;-77
2022/07/16 10:30:30;;;;;;;31.90;23.52;;;29.90;78.30;;;;;;4806183;29;20046;-74
2022/07/16 10:33:09;;;;;;;39.20;26.13;;;29.90;78.80;;;;;;4791597;29;20411;-76
2022/07/16 10:35:44;;;;;;;67.97;44.78;;;30.10;78.50;;;;;;4793000;29;20058;-76
2022/07/16 10:38:18;;;;;;;44.47;31.77;;;29.90;78.30;;;;;;4792455;29;20054;-76
2022/07/16 10:41:20;;;;;;;16.77;11.95;;;29.70;78.80;;;;;;4792859;29;20392;-79
2022/07/16 10:44:18;;;;;;;112.75;104.93;;;30.00;76.70;;;;;;4787192;29;20050;-78
2022/07/16 10:47:00;;;;;;;9.70;7.28;;;29.90;74.80;;;;;;4786335;29;20440;-75
2022/07/16 10:49:29;;;;;;;15.02;10.23;;;30.00;75.20;;;;;;4791444;29;20042;-86
2022/07/16 10:52:03;;;;;;;93.30;65.75;;;30.00;74.50;;;;;;4823628;29;20498;-87
2022/07/16 10:54:38;;;;;;;43.80;36.47;;;30.20;76.10;;;;;;4792461;29;20111;-78
2022/07/16 10:57:10;;;;;;;21.50;15.65;;;30.20;76.20;;;;;;4807300;29;20406;-81
2022/07/16 10:59:48;;;;;;;33.88;26.48;;;30.30;74.50;;;;;;4808542;29;20153;-86
2022/07/16 11:02:18;;;;;;;20.45;12.60;;;30.20;75.70;;;;;;4824249;29;20046;-84
2022/07/16 11:04:53;;;;;;;11.63;5.85;;;30.00;75.50;;;;;;4823962;29;20042;-85
2022/07/16 11:07:21;;;;;;;15.10;8.93;;;30.20;72.00;;;;;;4791815;29;20057;-82
2022/07/16 11:09:52;;;;;;;8.00;4.90;;;30.10;74.50;;;;;;4823635;29;20481;-84
2022/07/16 11:12:19;;;;;;;8.90;5.13;;;30.30;73.00;;;;;;4823216;29;20042;-84
2022/07/16 11:14:50;;;;;;;7.78;5.32;;;30.50;72.30;;;;;;4823194;29;20034;-85
2022/07/16 11:17:23;;;;;;;8.63;5.30;;;30.70;72.60;;;;;;4816432;29;20136;-92
2022/07/16 11:19:55;;;;;;;395.48;362.42;;;30.80;73.30;;;;;;4822418;29;20137;-84
2022/07/16 11:22:28;;;;;;;11.20;4.60;;;30.80;73.20;;;;;;4819799;29;20146;-80
2022/07/16 11:24:59;;;;;;;28.75;21.50;;;30.70;72.70;;;;;;4837677;29;20129;-86
2022/07/16 11:27:31;;;;;;;17.23;11.82;;;31.10;73.00;;;;;;4841205;29;20041;-87
2022/07/16 11:30:02;;;;;;;17.63;11.13;;;30.90;72.50;;;;;;4841795;29;20401;-76
2022/07/16 11:32:31;;;;;;;11.82;9.43;;;30.70;73.00;;;;;;4825247;29;20078;-80
2022/07/16 11:35:06;;;;;;;9.38;4.82;;;30.50;73.30;;;;;;4833620;29;21393;-78
2022/07/16 11:37:49;;;;;;;8.55;5.38;;;30.90;71.60;;;;;;4832955;29;20050;-85
2022/07/16 11:40:33;;;;;;;12.27;5.72;;;30.90;71.50;;;;;;4824433;29;20059;-93
2022/07/16 11:43:00;;;;;;;9.13;4.30;;;30.60;71.50;;;;;;4824409;29;20439;-85
2022/07/16 11:45:29;;;;;;;6.20;4.20;;;31.00;69.90;;;;;;4808494;29;20051;-88
2022/07/16 11:48:12;;;;;;;14.05;4.63;;;31.30;69.70;;;;;;4824115;29;20095;-90
2022/07/16 11:50:44;;;;;;;9.85;4.75;;;31.50;71.30;;;;;;4824431;29;20522;-79
2022/07/16 11:53:12;;;;;;;8.80;4.63;;;31.30;71.60;;;;;;4806645;29;20098;-83
2022/07/16 11:55:46;;;;;;;10.77;5.18;;;31.50;69.00;;;;;;4824107;29;20046;-86
2022/07/16 11:58:19;;;;;;;8.45;5.18;;;31.50;69.10;;;;;;4823363;29;20054;-79
2022/07/16 12:00:48;;;;;;;14.15;5.30;;;31.50;69.70;;;;;;4806915;29;20058;-76
2022/07/16 12:03:17;;;;;;;10.45;4.72;;;31.60;69.40;;;;;;4822183;29;20050;-75
2022/07/16 12:05:45;;;;;;;14.75;4.97;;;31.80;66.30;;;;;;4823360;29;20432;-83
2022/07/16 12:08:12;;;;;;;11.43;5.55;;;32.00;67.10;;;;;;4823505;29;20047;-77
2022/07/16 12:11:00;;;;;;;9.05;4.93;;;31.60;67.60;;;;;;4822802;29;20050;-76
2022/07/16 12:13:28;;;;;;;12.18;4.47;;;31.50;67.70;;;;;;4806318;29;20422;-75
2022/07/16 12:16:01;;;;;;;11.00;6.95;;;31.30;67.80;;;;;;4824098;29;20049;-76
2022/07/16 12:18:28;;;;;;;11.88;6.10;;;31.30;68.40;;;;;;4829802;29;20162;-75
2022/07/16 12:21:29;;;;;;;17.50;14.88;;;31.40;66.90;;;;;;4829867;29;20586;-81
2022/07/16 12:23:57;;;;;;;9.88;6.00;;;31.80;67.20;;;;;;4821577;29;20057;-80
2022/07/16 12:26:40;;;;;;;22.60;15.98;;;32.00;65.80;;;;;;4829382;29;20398;-74
2022/07/16 12:29:14;;;;;;;15.98;12.07;;;32.20;66.00;;;;;;4825166;29;20655;-76
2022/07/16 12:31:42;;;;;;;32.55;25.70;;;32.20;65.70;;;;;;4829618;29;20053;-75
2022/07/16 12:34:09;;;;;;;23.77;17.17;;;32.20;65.30;;;;;;4822679;29;20047;-80
2022/07/16 12:36:38;;;;;;;18.90;13.52;;;32.30;65.80;;;;;;4827903;29;20092;-76
2022/07/16 12:39:11;;;;;;;18.75;16.58;;;32.30;65.00;;;;;;4832675;29;20052;-77
2022/07/16 12:41:41;;;;;;;14.98;11.25;;;32.20;65.80;;;;;;4834636;29;20046;-75
2022/07/16 12:44:14;;;;;;;16.77;12.27;;;31.70;65.50;;;;;;4826035;29;20435;-75
2022/07/16 12:46:46;;;;;;;23.17;13.65;;;32.00;66.10;;;;;;4840971;29;20042;-78
2022/07/16 12:49:21;;;;;;;15.30;8.95;;;32.10;66.10;;;;;;4811109;29;20042;-77
2022/07/16 12:51:51;;;;;;;;;;;31.90;65.40;;;;;;4812173;29;20413;-77
2022/07/16 12:54:21;;;;;;;15.45;7.60;;;32.30;66.50;;;;;;4817712;29;19925;-78
2022/07/16 12:59:35;;;;;;;10.00;5.00;;;32.50;66.00;;;;;;4818215;29;20150;-79
2022/07/16 13:02:06;;;;;;;7.95;4.90;;;32.30;64.20;;;;;;4828332;29;20034;-77
2022/07/16 13:04:34;;;;;;;7.47;3.95;;;32.20;64.40;;;;;;4831049;29;20058;-75
2022/07/16 13:07:03;;;;;;;22.13;16.33;;;32.60;63.30;;;;;;4831811;29;20035;-75